createdAt,value
2022-11-05T00:00:18.795Z,6.5
2022-11-05T00:03:18.861Z,6.5
2022-11-05T00:06:18.799Z,6.5
2022-11-05T00:09:18.805Z,6.5
2022-11-05T00:12:18.812Z,6.4
2022-11-05T00:15:18.820Z,6.4
2022-11-05T00:18:18.828Z,6.3
2022-11-05T00:21:18.849Z,6.3
2022-11-05T00:24:23.267Z,6.2
2022-11-05T00:27:18.835Z,6.2
2022-11-05T00:30:18.836Z,6.2
2022-11-05T00:33:18.848Z,6.1
2022-11-05T00:36:18.849Z,6.1
2022-11-05T00:39:19.034Z,6.1
2022-11-05T00:42:18.859Z,6.1
2022-11-05T00:45:18.862Z,6
2022-11-05T00:48:18.885Z,6
2022-11-05T00:51:18.878Z,6
2022-11-05T00:54:18.884Z,6
2022-11-05T00:57:18.916Z,6
2022-11-05T01:00:18.902Z,6
2022-11-05T01:03:18.918Z,5.9
2022-11-05T01:06:18.910Z,5.9
2022-11-05T01:09:18.918Z,5.8
2022-11-05T01:12:18.918Z,5.9
2022-11-05T01:15:18.952Z,5.8
2022-11-05T01:18:18.945Z,5.8
2022-11-05T01:21:18.940Z,5.8
2022-11-05T01:24:18.947Z,5.8
2022-11-05T01:27:18.955Z,5.8
2022-11-05T01:30:18.964Z,5.7
2022-11-05T01:33:19.015Z,5.7
2022-11-05T01:36:18.979Z,5.6
2022-11-05T01:39:18.991Z,5.6
2022-11-05T01:42:19.000Z,5.6
2022-11-05T01:45:19.004Z,5.6
2022-11-05T01:48:19.025Z,5.6
2022-11-05T01:51:19.047Z,5.6
2022-11-05T01:54:19.031Z,5.6
2022-11-05T01:57:19.038Z,5.6
2022-11-05T02:00:19.040Z,5.5
2022-11-05T02:03:19.066Z,5.5
2022-11-05T02:06:19.059Z,5.5
2022-11-05T02:09:19.094Z,5.5
2022-11-05T02:12:19.080Z,5.5
2022-11-05T02:15:19.088Z,5.4
2022-11-05T02:18:19.104Z,5.4
2022-11-05T02:21:19.099Z,5.4
2022-11-05T02:24:19.116Z,5.4
2022-11-05T02:27:19.150Z,5.4
2022-11-05T02:30:19.132Z,5.4
2022-11-05T02:33:19.155Z,5.4
2022-11-05T02:36:19.154Z,5.4
2022-11-05T02:39:19.164Z,5.4
2022-11-05T02:42:19.166Z,5.4
2022-11-05T02:45:19.200Z,5.4
2022-11-05T02:48:19.194Z,5.3
2022-11-05T02:51:19.190Z,5.3
2022-11-05T02:54:19.214Z,5.3
2022-11-05T02:57:19.219Z,5.3
2022-11-05T03:00:19.225Z,5.3
2022-11-05T03:03:19.272Z,5.3
2022-11-05T03:06:19.249Z,5.3
2022-11-05T03:09:19.261Z,5.2
2022-11-05T03:12:19.270Z,5.2
2022-11-05T03:15:19.277Z,5.1
2022-11-05T03:18:19.305Z,5.1
2022-11-05T03:21:19.329Z,5.1
2022-11-05T03:24:19.313Z,5.1
2022-11-05T03:27:19.326Z,5.1
2022-11-05T03:30:19.339Z,5.1
2022-11-05T03:33:19.357Z,5.1
2022-11-05T03:36:19.377Z,5
2022-11-05T03:39:19.395Z,5
2022-11-05T03:42:19.384Z,4.9
2022-11-05T03:45:19.393Z,4.9
2022-11-05T03:48:19.451Z,4.9
2022-11-05T03:51:19.419Z,4.9
2022-11-05T03:54:19.433Z,4.9
2022-11-05T03:57:19.568Z,4.9
2022-11-05T04:00:19.459Z,4.8
2022-11-05T04:03:19.485Z,4.8
2022-11-05T04:06:19.488Z,4.8
2022-11-05T04:09:19.503Z,4.8
2022-11-05T04:12:19.518Z,4.8
2022-11-05T04:15:19.548Z,4.8
2022-11-05T04:18:19.559Z,4.8
2022-11-05T04:21:19.557Z,4.8
2022-11-05T04:24:19.573Z,4.7
2022-11-05T04:27:19.587Z,4.7
2022-11-05T04:30:19.668Z,4.7
2022-11-05T04:33:19.902Z,4.7
2022-11-05T04:36:19.633Z,4.8
2022-11-05T04:39:19.647Z,4.8
2022-11-05T04:42:19.663Z,4.8
2022-11-05T04:45:19.675Z,4.8
2022-11-05T04:48:19.702Z,4.8
2022-11-05T04:51:19.731Z,4.8
2022-11-05T04:54:19.721Z,4.8
2022-11-05T04:57:19.730Z,4.8
2022-11-05T05:00:19.755Z,4.7
2022-11-05T05:03:19.780Z,4.7
2022-11-05T05:06:19.781Z,4.6
2022-11-05T05:09:19.824Z,4.6
2022-11-05T05:12:19.811Z,4.6
2022-11-05T05:15:19.823Z,4.6
2022-11-05T05:18:19.854Z,4.6
2022-11-05T05:21:19.860Z,4.7
2022-11-05T05:24:19.871Z,4.8
2022-11-05T05:27:19.909Z,4.8
2022-11-05T05:30:20.066Z,4.8
2022-11-05T05:33:19.934Z,4.8
2022-11-05T05:36:19.934Z,4.8
2022-11-05T05:39:19.951Z,4.8
2022-11-05T05:42:19.970Z,4.7
2022-11-05T05:45:20.008Z,4.8
2022-11-05T05:48:20.006Z,4.8
2022-11-05T05:51:20.014Z,4.7
2022-11-05T05:54:20.028Z,4.7
2022-11-05T05:57:20.041Z,4.8
2022-11-05T06:00:20.061Z,4.7
2022-11-05T06:03:20.108Z,4.8
2022-11-05T06:06:20.088Z,4.8
2022-11-05T06:09:20.100Z,4.7
2022-11-05T06:12:20.117Z,4.6
2022-11-05T06:15:20.132Z,4.5
2022-11-05T06:18:20.154Z,4.5
2022-11-05T06:21:20.174Z,4.5
2022-11-05T06:24:20.164Z,4.5
2022-11-05T06:27:20.190Z,4.6
2022-11-05T06:30:20.191Z,4.6
2022-11-05T06:33:20.216Z,4.7
2022-11-05T06:36:20.214Z,4.7
2022-11-05T06:39:20.251Z,4.7
2022-11-05T06:42:20.244Z,4.7
2022-11-05T06:45:20.253Z,4.8
2022-11-05T06:48:20.272Z,4.8
2022-11-05T06:51:20.278Z,4.8
2022-11-05T06:54:20.292Z,4.9
2022-11-05T06:57:20.328Z,4.9
2022-11-05T07:00:20.313Z,5
2022-11-05T07:03:20.337Z,5.1
2022-11-05T07:06:20.345Z,5.3
2022-11-05T07:09:20.355Z,5.4
2022-11-05T07:12:20.376Z,5.6
2022-11-05T07:15:20.413Z,5.8
2022-11-05T07:18:20.410Z,6
2022-11-05T07:21:20.409Z,6.2
2022-11-05T07:24:20.422Z,6.5
2022-11-05T07:27:20.436Z,6.7
2022-11-05T07:30:20.453Z,6.9
2022-11-05T07:33:20.558Z,7.1
2022-11-05T07:36:20.473Z,7.3
2022-11-05T07:39:20.486Z,7.5
2022-11-05T07:42:20.503Z,7.7
2022-11-05T07:45:20.518Z,7.9
2022-11-05T07:48:20.541Z,8
2022-11-05T07:51:20.573Z,8.2
2022-11-05T07:54:20.552Z,8.4
2022-11-05T07:57:20.565Z,8.5
2022-11-05T08:00:20.579Z,8.7
2022-11-05T08:03:20.893Z,8.9
2022-11-05T08:06:20.591Z,9.1
2022-11-05T08:09:20.628Z,9.3
2022-11-05T08:12:20.613Z,9.5
2022-11-05T08:15:20.622Z,9.6
2022-11-05T08:18:20.643Z,9.6
2022-11-05T08:21:20.636Z,9.7
2022-11-05T08:24:20.647Z,10
2022-11-05T08:27:20.683Z,10.2
2022-11-05T08:30:20.668Z,10.4
2022-11-05T08:33:20.682Z,10.4
2022-11-05T08:36:20.679Z,10.6
2022-11-05T08:39:20.687Z,10.7
2022-11-05T08:42:20.700Z,10.8
2022-11-05T08:45:20.732Z,11
2022-11-05T08:48:20.725Z,11.1
2022-11-05T08:51:20.727Z,11.3
2022-11-05T08:54:20.735Z,11.2
2022-11-05T08:57:20.747Z,11.3
2022-11-05T09:00:20.763Z,11.3
2022-11-05T09:03:20.801Z,11.5
2022-11-05T09:06:20.772Z,11.5
2022-11-05T09:09:20.782Z,11.6
2022-11-05T09:12:20.791Z,11.5
2022-11-05T09:15:20.803Z,11.6
2022-11-05T09:18:20.829Z,11.9
2022-11-05T09:21:20.843Z,12.1
2022-11-05T09:24:20.829Z,12.1
2022-11-05T09:27:20.834Z,12.1
2022-11-05T09:30:20.842Z,12.2
2022-11-05T09:33:20.864Z,12.2
2022-11-05T09:36:20.863Z,12.6
2022-11-05T09:39:20.898Z,12.5
2022-11-05T09:42:20.887Z,12.7
2022-11-05T09:45:20.889Z,12.7
2022-11-05T09:48:20.909Z,12.7
2022-11-05T09:51:23.571Z,12.9
2022-11-05T09:54:20.914Z,13.1
2022-11-05T09:57:21.044Z,13.2
2022-11-05T10:00:20.934Z,13.3
2022-11-05T10:03:20.956Z,13.3
2022-11-05T10:06:20.957Z,13.5
2022-11-05T10:09:20.960Z,13.5
2022-11-05T10:12:20.981Z,13.6
2022-11-05T10:15:21.005Z,13.6
2022-11-05T10:18:20.997Z,13.5
2022-11-05T10:21:32.507Z,13.6
2022-11-05T10:24:21.006Z,13.5
2022-11-05T10:27:21.039Z,13.3
2022-11-05T10:30:21.020Z,13.2
2022-11-05T10:33:21.065Z,13.1
2022-11-05T10:36:21.035Z,12.9
2022-11-05T10:39:21.047Z,12.7
2022-11-05T10:42:21.059Z,12.9
2022-11-05T10:45:21.055Z,13.1
2022-11-05T10:48:21.073Z,13.3
2022-11-05T10:51:21.101Z,13.4
2022-11-05T10:54:21.080Z,13.5
2022-11-05T10:57:21.103Z,13.4
2022-11-05T11:00:21.094Z,13.2
2022-11-05T11:03:21.113Z,13.3
2022-11-05T11:06:21.111Z,13.3
2022-11-05T11:09:21.145Z,13
2022-11-05T11:12:21.186Z,12.8
2022-11-05T11:15:21.138Z,12.6
2022-11-05T11:18:21.157Z,12.6
2022-11-05T11:21:21.158Z,12.6
2022-11-05T11:24:21.159Z,12.6
2022-11-05T11:27:21.201Z,12.8
2022-11-05T11:30:21.175Z,12.6
2022-11-05T11:33:21.190Z,12.3
2022-11-05T11:36:21.191Z,12
2022-11-05T11:39:21.200Z,11.7
2022-11-05T11:42:21.212Z,11.5
2022-11-05T11:45:21.328Z,11.3
2022-11-05T11:48:21.221Z,11.1
2022-11-05T11:51:21.216Z,11.1
2022-11-05T11:54:21.227Z,11
2022-11-05T11:57:21.240Z,11
2022-11-05T12:00:21.239Z,11
2022-11-05T12:03:21.459Z,11
2022-11-05T12:06:21.255Z,11
2022-11-05T12:09:21.262Z,11.1
2022-11-05T12:12:21.276Z,11.2
2022-11-05T12:15:21.272Z,11.2
2022-11-05T12:18:21.289Z,11.2
2022-11-05T12:21:34.771Z,11.3
2022-11-05T12:24:21.296Z,11.5
2022-11-05T12:27:21.301Z,11.5
2022-11-05T12:30:21.301Z,11.5
2022-11-05T12:33:21.318Z,11.6
2022-11-05T12:36:21.307Z,11.6
2022-11-05T12:39:21.333Z,11.6
2022-11-05T12:42:21.325Z,11.6
2022-11-05T12:45:21.323Z,11.6
2022-11-05T12:48:26.910Z,11.7
2022-11-05T12:51:21.324Z,11.7
2022-11-05T12:54:21.334Z,11.6
2022-11-05T12:57:21.371Z,11.4
2022-11-05T13:00:21.335Z,11.2
2022-11-05T13:03:21.349Z,11.1
2022-11-05T13:06:21.343Z,11
2022-11-05T13:09:21.340Z,11.1
2022-11-05T13:12:21.352Z,11.2
2022-11-05T13:15:21.368Z,11.4
2022-11-05T13:18:21.354Z,11.4
2022-11-05T13:21:21.345Z,11.4
2022-11-05T13:24:21.342Z,11.5
2022-11-05T13:27:21.360Z,11.5
2022-11-05T13:30:21.360Z,11.5
2022-11-05T13:33:21.607Z,11.5
2022-11-05T13:36:21.378Z,11.5
2022-11-05T13:39:21.403Z,11.5
2022-11-05T13:42:21.481Z,11.5
2022-11-05T13:45:21.446Z,11.4
2022-11-05T13:48:21.476Z,11.3
2022-11-05T13:51:21.513Z,11.2
2022-11-05T13:54:21.511Z,11.1
2022-11-05T13:57:21.542Z,11.1
2022-11-05T14:00:21.549Z,11
2022-11-05T14:03:21.584Z,11
2022-11-05T14:06:21.586Z,11.1
2022-11-05T14:09:21.645Z,11.1
2022-11-05T14:12:21.645Z,11
2022-11-05T14:15:21.652Z,11
2022-11-05T14:18:21.692Z,11
2022-11-05T14:21:21.698Z,11
2022-11-05T14:24:21.723Z,10.9
2022-11-05T14:27:21.790Z,10.9
2022-11-05T14:30:21.773Z,10.9
2022-11-05T14:33:21.807Z,10.8
2022-11-05T14:36:21.833Z,10.7
2022-11-05T14:39:21.854Z,10.7
2022-11-05T14:42:21.878Z,10.7
2022-11-05T14:45:21.919Z,10.6
2022-11-05T14:48:21.930Z,10.6
2022-11-05T14:51:21.942Z,10.5
2022-11-05T14:54:21.961Z,10.5
2022-11-05T14:57:21.999Z,10.5
2022-11-05T15:00:21.997Z,10.4
2022-11-05T15:03:22.194Z,10.3
2022-11-05T15:06:22.052Z,10.2
2022-11-05T15:09:22.077Z,10.2
2022-11-05T15:12:22.113Z,10
2022-11-05T15:15:22.306Z,9.9
2022-11-05T15:18:22.151Z,9.8
2022-11-05T15:21:22.201Z,9.7
2022-11-05T15:24:22.203Z,9.6
2022-11-05T15:27:22.246Z,9.4
2022-11-05T15:30:22.258Z,9.3
2022-11-05T15:33:22.294Z,9.2
2022-11-05T15:36:22.324Z,9.1
2022-11-05T15:39:29.263Z,9
2022-11-05T15:42:22.369Z,8.9
2022-11-05T15:45:22.382Z,8.8
2022-11-05T15:48:22.436Z,8.7
2022-11-05T15:51:22.417Z,8.5
2022-11-05T15:54:29.991Z,8.4
2022-11-05T15:57:22.486Z,8.1
2022-11-05T16:00:22.479Z,8
2022-11-05T16:03:22.502Z,7.8
2022-11-05T16:06:22.506Z,7.7
2022-11-05T16:09:22.537Z,7.5
2022-11-05T16:12:22.558Z,7.3
2022-11-05T16:15:22.588Z,7.2
2022-11-05T16:18:22.598Z,7
2022-11-05T16:21:22.618Z,6.9
2022-11-05T16:24:26.596Z,6.8
2022-11-05T16:27:22.666Z,6.7
2022-11-05T16:30:22.671Z,6.7
2022-11-05T16:33:22.828Z,6.7
2022-11-05T16:36:22.711Z,6.7
2022-11-05T16:39:22.722Z,6.7
2022-11-05T16:42:22.739Z,6.7
2022-11-05T16:45:22.739Z,6.7
2022-11-05T16:48:22.747Z,6.7
2022-11-05T16:51:26.332Z,6.7
2022-11-05T16:54:22.765Z,6.8
2022-11-05T16:57:22.790Z,6.9
2022-11-05T17:00:22.794Z,6.9
2022-11-05T17:03:22.822Z,6.9
2022-11-05T17:06:22.829Z,7
2022-11-05T17:09:22.864Z,7
2022-11-05T17:12:22.869Z,7.1
2022-11-05T17:15:22.875Z,7.2
2022-11-05T17:18:23.031Z,7.2
2022-11-05T17:21:22.908Z,7.2
2022-11-05T17:24:22.915Z,7.2
2022-11-05T17:27:22.969Z,7.2
2022-11-05T17:30:22.942Z,7.2
2022-11-05T17:33:23.293Z,7.2
2022-11-05T17:36:22.967Z,7.2
2022-11-05T17:39:26.044Z,7.2
2022-11-05T17:42:22.986Z,7.2
2022-11-05T17:45:23.007Z,7.1
2022-11-05T17:48:23.008Z,7.1
2022-11-05T17:51:23.012Z,7.1
2022-11-05T17:54:23.020Z,7.1
2022-11-05T17:57:23.046Z,7.1
2022-11-05T18:00:23.064Z,7.2
2022-11-05T18:03:23.102Z,7.2
2022-11-05T18:06:23.080Z,7.2
2022-11-05T18:09:23.096Z,7.2
2022-11-05T18:12:23.121Z,7.2
2022-11-05T18:15:23.130Z,7.1
2022-11-05T18:18:23.155Z,7.1
2022-11-05T18:21:23.182Z,7.1
2022-11-05T18:24:23.167Z,7.1
2022-11-05T18:27:23.186Z,7
2022-11-05T18:30:23.187Z,7
2022-11-05T18:33:23.207Z,6.9
2022-11-05T18:36:23.210Z,6.8
2022-11-05T18:39:23.242Z,6.7
2022-11-05T18:42:23.242Z,6.7
2022-11-05T18:45:26.955Z,6.6
2022-11-05T18:48:23.271Z,6.7
2022-11-05T18:51:23.283Z,6.7
2022-11-05T18:54:23.307Z,6.7
2022-11-05T18:57:23.391Z,6.7
2022-11-05T19:00:23.351Z,6.7
2022-11-05T19:03:23.379Z,6.7
2022-11-05T19:06:23.389Z,6.7
2022-11-05T19:09:23.398Z,6.7
2022-11-05T19:12:23.429Z,6.6
2022-11-05T19:15:23.462Z,6.7
2022-11-05T19:18:23.457Z,6.7
2022-11-05T19:21:23.453Z,6.7
2022-11-05T19:24:23.465Z,6.8
2022-11-05T19:27:23.489Z,6.8
2022-11-05T19:30:23.487Z,6.8
2022-11-05T19:33:23.535Z,6.9
2022-11-05T19:36:23.521Z,6.9
2022-11-05T19:39:23.541Z,6.9
2022-11-05T19:42:23.560Z,6.9
2022-11-05T19:45:43.327Z,7
2022-11-05T19:48:23.878Z,7
2022-11-05T19:51:23.625Z,7
2022-11-05T19:54:23.610Z,7
2022-11-05T19:57:23.640Z,7.1
2022-11-05T20:00:23.643Z,7.1
2022-11-05T20:03:23.722Z,7.2
2022-11-05T20:06:23.680Z,7.2
2022-11-05T20:09:23.731Z,7.2
2022-11-05T20:12:23.715Z,7.2
2022-11-05T20:15:23.713Z,7.2
2022-11-05T20:18:23.734Z,7.2
2022-11-05T20:21:23.725Z,7.2
2022-11-05T20:24:25.417Z,7.2
2022-11-05T20:27:23.798Z,7.2
2022-11-05T20:30:23.777Z,7.2
2022-11-05T20:33:23.802Z,7.2
2022-11-05T20:36:23.812Z,7.2
2022-11-05T20:39:23.837Z,7.2
2022-11-05T20:42:23.869Z,7.2
2022-11-05T20:45:23.898Z,7.1
2022-11-05T20:48:23.905Z,7.1
2022-11-05T20:51:23.912Z,7
2022-11-05T20:54:23.928Z,7
2022-11-05T20:57:23.954Z,7
2022-11-05T21:00:23.963Z,7
2022-11-05T21:03:24.011Z,7
2022-11-05T21:06:23.993Z,7
2022-11-05T21:09:23.998Z,6.9
2022-11-05T21:12:24.023Z,6.9
2022-11-05T21:15:24.021Z,6.9
2022-11-05T21:18:24.047Z,6.9
2022-11-05T21:21:24.071Z,6.9
2022-11-05T21:24:24.060Z,6.9
2022-11-05T21:27:24.088Z,6.8
2022-11-05T21:30:24.095Z,6.8
2022-11-05T21:33:24.120Z,6.9
2022-11-05T21:36:24.130Z,6.9
2022-11-05T21:39:24.162Z,6.9
2022-11-05T21:42:24.165Z,7
2022-11-05T21:45:24.179Z,7
2022-11-05T21:48:24.203Z,7
2022-11-05T21:51:24.211Z,7.1
2022-11-05T21:54:24.221Z,7.1
2022-11-05T21:57:24.361Z,7.1
2022-11-05T22:00:24.257Z,7
2022-11-05T22:03:24.276Z,7
2022-11-05T22:06:24.281Z,7
2022-11-05T22:09:24.286Z,7
2022-11-05T22:12:24.316Z,7
2022-11-05T22:15:24.345Z,7
2022-11-05T22:18:24.351Z,7
2022-11-05T22:21:24.361Z,7
2022-11-05T22:24:24.381Z,7
2022-11-05T22:27:24.402Z,6.9
2022-11-05T22:30:24.408Z,6.9
2022-11-05T22:33:24.461Z,6.9
2022-11-05T22:36:24.435Z,6.9
2022-11-05T22:39:24.456Z,7
2022-11-05T22:42:24.533Z,7
2022-11-05T22:45:24.487Z,7
2022-11-05T22:48:24.520Z,7
2022-11-05T22:51:24.547Z,7
2022-11-05T22:54:24.538Z,7
2022-11-05T22:57:24.559Z,7
2022-11-05T23:00:24.568Z,7
2022-11-05T23:03:24.597Z,6.9
2022-11-05T23:06:24.587Z,6.9
2022-11-05T23:09:24.630Z,6.9
2022-11-05T23:12:24.630Z,6.9
2022-11-05T23:15:24.636Z,6.9
2022-11-05T23:18:24.661Z,6.9
2022-11-05T23:21:24.669Z,6.9
2022-11-05T23:24:24.684Z,6.8
2022-11-05T23:27:24.733Z,6.8
2022-11-05T23:30:24.717Z,6.8
2022-11-05T23:33:24.744Z,6.7
2022-11-05T23:36:24.749Z,6.7
2022-11-05T23:39:24.767Z,6.7
2022-11-05T23:42:24.798Z,6.7
2022-11-05T23:45:24.825Z,6.8
2022-11-05T23:48:24.819Z,6.8
2022-11-05T23:51:24.809Z,6.9
2022-11-05T23:54:24.817Z,7
2022-11-05T23:57:24.820Z,7.1
